LATI/TIA METAR and TAF weather

Enter ICAO airport designator
Station Type Date Time Source
LATI METAR 2019/10/15 03:50 UTC NOAA

LATI 150350Z 17003KT 6000 0300S R17/0350V0800 R35/1000 BCFG NSC 13/12 Q1019 NOSIG


Station Type Date Time Source
LATI Decoded METAR 2019/10/15 03:50 UTC NOAA

Tirana, Albania (LATI) 41-20N 019-47E 90M
Oct 14, 2019 - 11:50 PM EDT / 2019.10.15 0350 UTC
Wind: from the S (170 degrees) at 3 MPH (3 KT) (direction variable):0
Visibility: 3 mile(s):0
Weather: patches of fog
Temperature: 55 F (13 C)
Dew Point: 53 F (12 C)
Relative Humidity: 93%
Pressure (altimeter): 30.09 in. Hg (1019 hPa)
ob: LATI 150350Z 17003KT 6000 0300S R17/0350V0800 R35/1000 BCFG NSC 13/12 Q1019 NOSIG
cycle: 4

Station Type Date Time Source
LATI TAF 2019/10/14 18:15 UTC NOAA

TAF TAF LATI 141700Z 1418/1518 VRB04KT CAVOK

Example: see airport list